Time;durP1;ratioP1;P1;durP2;ratioP2;P2;SDS_P1;SDS_P2;PMS_P1;PMS_P2;Temp;Humidity;BMP_temperature;BMP_pressure;BME280_temperature;BME280_humidity;BME280_pressure;Samples;Min_cycle;Max_cycle;Signal;HPM_P1;HPM_P2
2022/04/09 00:00:34;;;;;;;8.80;2.07;;;;;;;15.86;45.61;100316.81;2570729;23;20177;-64
2022/04/09 00:01:34;;;;;;;5.43;1.80;;;;;;;15.83;45.67;100317.75;2570644;23;20179;-64
2022/04/09 00:02:35;;;;;;;6.87;1.73;;;;;;;15.79;46.44;100317.16;2570834;23;20150;-64
2022/04/09 00:03:35;;;;;;;3.87;1.50;;;;;;;15.76;46.08;100317.34;2570536;23;20615;-64
2022/04/09 00:04:36;;;;;;;4.33;1.60;;;;;;;15.31;46.25;100250.56;2570725;23;20145;-64
2022/04/09 00:05:36;;;;;;;5.33;1.83;;;;;;;15.65;46.38;100305.91;2570718;23;20151;-64
2022/04/09 00:06:37;;;;;;;5.23;1.60;;;;;;;15.65;45.90;100314.28;2570743;23;20229;-64
2022/04/09 00:07:37;;;;;;;5.23;1.60;;;;;;;14.92;45.85;100204.22;2570654;23;20153;-64
2022/04/09 00:08:38;;;;;;;5.53;1.53;;;;;;;15.56;45.88;100303.16;2570617;23;20175;-64
2022/04/09 00:09:39;;;;;;;3.90;1.50;;;;;;;15.51;46.16;100306.59;2570632;23;20169;-64
2022/04/09 00:10:39;;;;;;;3.77;1.37;;;;;;;15.50;46.11;100300.28;2570029;23;20217;-64
2022/04/09 00:11:41;;;;;;;4.60;1.40;;;;;;;15.50;45.95;100305.06;2570530;23;20150;-64
2022/04/09 00:12:46;;;;;;;7.27;1.80;;;;;;;15.48;46.22;100308.31;2570715;23;20159;-64
2022/04/09 00:13:46;;;;;;;4.90;1.60;;;;;;;14.97;47.08;100212.69;2570661;23;20411;-64
2022/04/09 00:14:47;;;;;;;8.77;1.60;;;;;;;15.47;46.81;100292.81;2570667;23;20419;-64
2022/04/09 00:15:47;;;;;;;4.93;1.57;;;;;;;14.83;46.89;100204.25;2570691;23;20151;-64
2022/04/09 00:16:48;;;;;;;4.33;1.60;;;;;;;15.45;46.82;100286.94;2570522;23;20173;-64
2022/04/09 00:17:48;;;;;;;4.30;1.27;;;;;;;15.43;46.63;100292.22;2570591;23;20665;-64
2022/04/09 00:18:49;;;;;;;3.13;1.20;;;;;;;15.41;47.01;100288.34;2570615;23;20182;-64
2022/04/09 00:19:49;;;;;;;4.53;1.60;;;;;;;15.31;46.64;100270.09;2570584;23;20178;-64
2022/04/09 00:20:50;;;;;;;3.57;1.30;;;;;;;15.40;46.80;100289.59;2571170;23;20153;-64
2022/04/09 00:21:50;;;;;;;3.83;1.53;;;;;;;15.39;46.63;100285.28;2570674;23;20182;-64
2022/04/09 00:22:52;;;;;;;4.40;1.63;;;;;;;15.38;46.68;100284.47;2570707;23;20234;-64
2022/04/09 00:23:52;;;;;;;3.50;1.40;;;;;;;15.38;47.32;100284.47;2570416;23;20155;-64
2022/04/09 00:24:53;;;;;;;4.77;1.37;;;;;;;15.38;47.05;100290.06;2570598;23;20383;-64
2022/04/09 00:25:53;;;;;;;5.03;1.60;;;;;;;15.38;48.52;100280.94;2570736;23;20211;-64
2022/04/09 00:26:54;;;;;;;5.30;1.70;;;;;;;15.30;47.94;100280.47;2570386;23;20186;-64
2022/04/09 00:27:55;;;;;;;3.47;1.47;;;;;;;15.34;47.62;100288.72;2557384;23;20267;-64
2022/04/09 00:28:55;;;;;;;5.07;1.50;;;;;;;15.32;47.10;100280.78;2557500;23;20199;-64
2022/04/09 00:29:56;;;;;;;5.27;1.60;;;;;;;14.93;48.04;100220.50;2570619;23;20159;-64
2022/04/09 00:30:56;;;;;;;4.20;1.60;;;;;;;15.30;48.08;100269.31;2570571;23;20480;-64
2022/04/09 00:31:57;;;;;;;5.73;1.73;;;;;;;14.35;48.22;100127.28;2570540;23;20183;-64
2022/04/09 00:32:57;;;;;;;4.97;1.40;;;;;;;15.24;47.74;100262.84;2570649;23;20151;-64
2022/04/09 00:33:58;;;;;;;3.77;1.53;;;;;;;15.21;47.12;100263.75;2570621;23;20548;-64
2022/04/09 00:34:59;;;;;;;5.63;1.80;;;;;;;14.37;48.79;100147.88;2557429;23;20165;-64
2022/04/09 00:35:59;;;;;;;4.03;1.40;;;;;;;15.18;47.59;100255.56;2557590;23;20387;-64
2022/04/09 00:37:00;;;;;;;7.37;1.73;;;;;;;15.12;47.81;100246.28;2570641;23;20624;-64
2022/04/09 00:38:00;;;;;;;5.13;1.70;;;;;;;14.33;48.78;100138.13;2570639;23;20232;-64
2022/04/09 00:39:01;;;;;;;7.67;1.90;;;;;;;15.17;49.40;100259.59;2570548;23;20160;-64
2022/04/09 00:40:02;;;;;;;5.53;1.30;;;;;;;15.15;49.35;100260.06;2570570;23;20170;-64
2022/04/09 00:41:02;;;;;;;3.47;1.40;;;;;;;15.13;49.03;100267.38;2570606;23;20566;-64
2022/04/09 00:42:03;;;;;;;5.03;1.63;;;;;;;15.11;48.54;100265.06;2570399;23;20232;-64
2022/04/09 00:43:04;;;;;;;6.40;1.70;;;;;;;15.10;48.75;100259.94;2570441;23;20160;-64
2022/04/09 00:44:14;;;;;;;3.30;1.47;;;;;;;15.00;48.57;100250.84;2570580;23;20149;-64
2022/04/09 00:45:15;;;;;;;4.93;1.40;;;;;;;14.80;48.63;100221.94;2570467;23;20194;-64
2022/04/09 00:46:16;;;;;;;4.97;1.47;;;;;;;15.04;48.72;100261.81;2570544;23;20873;-64
2022/04/09 00:47:16;;;;;;;4.63;1.77;;;;;;;14.84;49.12;100233.69;2570287;23;20240;-64
2022/04/09 00:48:21;;;;;;;3.87;1.57;;;;;;;15.01;49.37;100262.78;2570575;23;20588;-64
2022/04/09 00:49:21;;;;;;;3.40;1.03;;;;;;;13.93;48.14;100107.69;2570640;23;20149;-64
2022/04/09 00:50:22;;;;;;;5.30;1.70;;;;;;;14.93;48.12;100275.50;2570565;23;20385;-64
2022/04/09 00:51:22;;;;;;;4.57;1.63;;;;;;;14.90;47.88;100271.63;2570496;23;20160;-64
2022/04/09 00:52:26;;;;;;;7.07;2.17;;;;;;;13.85;48.87;100112.06;2570584;23;20596;-64
2022/04/09 00:53:31;;;;;;;8.17;1.90;;;;;;;14.91;49.44;100267.59;2570462;23;20180;-64
2022/04/09 00:54:33;;;;;;;4.13;1.53;;;;;;;13.98;48.85;100126.56;2557392;23;20389;-64
2022/04/09 00:56:59;;;;;;;4.53;1.47;;;;;;;13.82;48.20;100112.19;2570312;23;20713;-64
2022/04/09 00:57:59;;;;;;;4.30;1.30;;;;;;;14.82;47.97;100264.88;2570449;23;20424;-64
2022/04/09 00:59:06;;;;;;;8.67;1.60;;;;;;;14.62;48.34;100247.09;2570461;23;20414;-64
2022/04/09 01:00:09;;;;;;;3.30;1.57;;;;;;;14.71;48.73;100253.41;2570506;23;20158;-64
2022/04/09 01:01:11;;;;;;;5.07;1.50;;;;;;;14.78;48.98;100266.25;2570698;23;20938;-64
2022/04/09 01:02:12;;;;;;;4.13;1.60;;;;;;;14.71;49.30;100267.34;2557248;23;20399;-64
2022/04/09 01:03:19;;;;;;;5.80;1.60;;;;;;;13.84;49.29;100148.72;2557378;23;20378;-64
2022/04/09 01:04:20;;;;;;;3.47;1.43;;;;;;;14.66;49.27;100264.44;2570625;23;20366;-64
2022/04/09 01:05:21;;;;;;;4.87;1.50;;;;;;;14.60;49.02;100255.16;2570477;23;20412;-64
2022/04/09 01:06:22;;;;;;;5.20;1.70;;;;;;;14.64;49.16;100264.09;2570509;23;20728;-64
2022/04/09 01:07:23;;;;;;;4.77;1.70;;;;;;;14.61;49.03;100257.44;2570306;23;20228;-64
2022/04/09 01:08:24;;;;;;;5.50;1.50;;;;;;;14.60;49.09;100260.72;2570567;23;20453;-64
2022/04/09 01:09:24;;;;;;;4.50;1.60;;;;;;;14.58;49.17;100263.97;2570595;23;20392;-64
2022/04/09 01:10:25;;;;;;;4.67;1.40;;;;;;;14.54;49.70;100255.00;2570450;23;20586;-64
2022/04/09 01:11:25;;;;;;;5.77;1.30;;;;;;;14.53;49.39;100267.41;2557167;23;20345;-64
2022/04/09 01:12:26;;;;;;;5.27;1.33;;;;;;;14.50;49.54;100265.53;2557190;23;20228;-64
2022/04/09 01:13:28;;;;;;;4.83;1.27;;;;;;;14.52;49.07;100267.88;2570221;23;20151;-64
2022/04/09 01:14:30;;;;;;;5.90;1.50;;;;;;;14.48;49.18;100264.47;2570460;23;20462;-65
2022/04/09 01:15:30;;;;;;;6.30;1.53;;;;;;;14.49;49.26;100275.16;2570506;23;20379;-64
2022/04/09 01:16:31;;;;;;;4.67;1.43;;;;;;;14.50;49.25;100267.56;2570467;23;20376;-64
2022/04/09 01:17:31;;;;;;;4.00;1.47;;;;;;;14.46;49.06;100255.78;2570270;23;20726;-64
2022/04/09 01:18:33;;;;;;;3.47;1.37;;;;;;;14.43;49.17;100257.50;2570365;23;20537;-64
2022/04/09 01:19:34;;;;;;;4.13;1.27;;;;;;;14.31;49.37;100240.94;2570340;23;20177;-64
2022/04/09 01:20:35;;;;;;;3.67;1.30;;;;;;;14.52;49.39;100284.59;2570403;23;20390;-64
2022/04/09 01:21:35;;;;;;;4.20;1.60;;;;;;;14.51;49.41;100266.31;2570348;23;20656;-64
2022/04/09 01:22:36;;;;;;;4.47;1.67;;;;;;;14.49;49.05;100274.38;2570501;23;20538;-64
2022/04/09 01:23:37;;;;;;;4.93;1.43;;;;;;;14.49;48.97;100275.16;2570322;23;20547;-64
2022/04/09 01:24:37;;;;;;;3.97;1.23;;;;;;;14.13;49.20;100222.19;2570377;23;20495;-64
2022/04/09 01:25:38;;;;;;;5.20;1.70;;;;;;;14.51;49.06;100269.09;2570379;23;20472;-64
2022/04/09 01:26:38;;;;;;;2.97;1.40;;;;;;;14.39;49.32;100259.66;2570280;23;20606;-64
2022/04/09 01:27:40;;;;;;;3.77;1.30;;;;;;;14.50;49.05;100267.56;2570364;23;20148;-64
2022/04/09 01:28:41;;;;;;;3.83;1.40;;;;;;;13.95;49.09;100182.44;2570452;23;20226;-64
2022/04/09 01:29:43;;;;;;;5.40;1.50;;;;;;;14.51;48.90;100266.31;2570369;23;20458;-64
2022/04/09 01:30:45;;;;;;;4.20;1.40;;;;;;;14.51;49.13;100266.31;2557229;23;20389;-64
2022/04/09 01:31:45;;;;;;;3.23;1.17;;;;;;;14.54;49.00;100259.78;2557202;23;20398;-64
2022/04/09 01:32:46;;;;;;;4.97;1.50;;;;;;;14.46;48.82;100241.84;2570480;23;20397;-64
2022/04/09 01:33:47;;;;;;;5.47;1.30;;;;;;;14.60;48.95;100258.69;2570240;23;20570;-64
2022/04/09 01:34:47;;;;;;;4.07;1.33;;;;;;;14.62;48.74;100259.03;2570334;23;20383;-64
2022/04/09 01:35:49;;;;;;;6.80;1.77;;;;;;;14.59;48.83;100242.44;2570351;23;20498;-64
2022/04/09 01:36:50;;;;;;;6.00;1.53;;;;;;;14.63;48.76;100259.78;2570080;23;20460;-64
2022/04/09 01:37:50;;;;;;;4.97;1.30;;;;;;;14.58;48.86;100240.91;2570135;23;20379;-64
2022/04/09 01:38:51;;;;;;;4.47;1.50;;;;;;;14.70;48.56;100251.09;2570355;23;20151;-64
2022/04/09 01:39:51;;;;;;;6.87;1.30;;;;;;;14.02;48.29;100132.75;2557157;23;20162;-64
2022/04/09 01:40:54;;;;;;;7.13;1.60;;;;;;;14.79;48.46;100249.06;2557258;23;20208;-66
2022/04/09 01:41:54;;;;;;;14.43;1.50;;;;;;;14.81;48.35;100257.72;2569781;23;20225;-67
2022/04/09 01:42:54;;;;;;;4.83;1.40;;;;;;;14.87;48.61;100257.84;2570266;23;20446;-67
2022/04/09 01:43:55;;;;;;;6.77;1.53;;;;;;;14.82;48.06;100245.34;2569862;23;20152;-66
2022/04/09 01:44:56;;;;;;;5.17;1.50;;;;;;;14.78;47.83;100239.16;2570147;23;20531;-66
2022/04/09 01:45:57;;;;;;;3.57;1.20;;;;;;;14.95;48.27;100245.09;2570409;23;20464;-66
2022/04/09 01:46:59;;;;;;;5.47;1.30;;;;;;;14.97;47.98;100251.75;2570089;23;20414;-66
2022/04/09 01:48:00;;;;;;;5.17;1.60;;;;;;;14.99;48.18;100254.88;2557089;23;20662;-66
2022/04/09 01:49:00;;;;;;;4.03;1.40;;;;;;;15.00;48.32;100250.03;2557223;23;20631;-66
2022/04/09 01:50:01;;;;;;;4.97;1.60;;;;;;;15.00;48.13;100248.03;2570257;23;20768;-66
2022/04/09 01:51:02;;;;;;;4.77;1.30;;;;;;;15.02;48.09;100244.78;2570290;23;20168;-66
2022/04/09 01:52:02;;;;;;;4.83;1.30;;;;;;;15.05;47.85;100247.41;2570312;23;20151;-66
2022/04/09 01:53:03;;;;;;;5.43;1.47;;;;;;;15.07;48.17;100242.09;2570229;23;20150;-66
2022/04/09 01:54:04;;;;;;;5.73;1.40;;;;;;;14.91;48.39;100217.38;2570200;23;20154;-66
2022/04/09 01:55:05;;;;;;;3.83;1.50;;;;;;;15.15;47.83;100242.53;2570217;23;20156;-66
2022/04/09 01:56:06;;;;;;;4.30;1.33;;;;;;;14.78;47.77;100188.94;2570318;23;20206;-66
2022/04/09 01:57:07;;;;;;;6.03;1.70;;;;;;;15.17;47.91;100242.88;2570142;23;20403;-66
2022/04/09 01:58:07;;;;;;;6.43;1.37;;;;;;;13.96;47.77;100058.63;2570291;23;20476;-66
2022/04/09 01:59:08;;;;;;;7.80;1.77;;;;;;;14.11;47.76;100084.59;2570369;23;20162;-66
2022/04/09 02:00:11;;;;;;;3.17;1.40;;;;;;;15.16;48.16;100244.13;2570284;23;20150;-66
2022/04/09 02:01:16;;;;;;;5.63;1.60;;;;;;;15.15;48.25;100246.13;2570161;23;20152;-66
2022/04/09 02:02:17;;;;;;;6.40;1.53;;;;;;;15.16;48.23;100247.66;2570286;23;20833;-66
2022/04/09 02:03:17;;;;;;;5.17;1.33;;;;;;;14.87;48.38;100199.28;2569998;23;20386;-66
2022/04/09 02:04:18;;;;;;;6.23;1.50;;;;;;;15.17;47.96;100249.19;2570214;23;20214;-66
2022/04/09 02:05:19;;;;;;;7.07;1.83;;;;;;;14.75;48.20;100195.44;2570232;23;20483;-66
2022/04/09 02:06:19;;;;;;;3.80;1.40;;;;;;;15.14;48.21;100236.22;2570260;23;20153;-66
2022/04/09 02:07:20;;;;;;;4.07;1.33;;;;;;;15.15;48.68;100242.53;2570151;23;20465;-66
2022/04/09 02:08:21;;;;;;;5.40;1.70;;;;;;;15.16;47.93;100238.53;2570204;23;20151;-66
2022/04/09 02:09:22;;;;;;;3.90;1.47;;;;;;;15.18;48.08;100236.81;2570237;23;20150;-66
2022/04/09 02:10:22;;;;;;;6.57;1.50;;;;;;;15.20;48.02;100231.53;2570411;23;20383;-67
2022/04/09 02:11:23;;;;;;;4.20;1.37;;;;;;;15.20;47.81;100225.94;2570262;23;20155;-66
2022/04/09 02:12:24;;;;;;;4.67;1.50;;;;;;;15.22;47.97;100234.59;2570284;23;20229;-66
2022/04/09 02:13:24;;;;;;;6.63;2.03;;;;;;;15.23;47.87;100233.38;2570212;23;20269;-66
2022/04/09 02:14:25;;;;;;;3.73;1.40;;;;;;;15.24;47.80;100239.72;2570279;23;20700;-64
2022/04/09 02:15:25;;;;;;;5.47;1.67;;;;;;;15.28;47.78;100232.72;2570428;23;20147;-64
2022/04/09 02:16:27;;;;;;;4.17;1.57;;;;;;;15.17;47.80;100215.72;2570155;23;20597;-64
2022/04/09 02:17:28;;;;;;;4.63;1.30;;;;;;;15.35;47.52;100232.41;2570104;23;20156;-64
2022/04/09 02:18:28;;;;;;;5.03;1.20;;;;;;;15.39;47.43;100233.00;2569965;23;20424;-65
2022/04/09 02:19:29;;;;;;;4.47;1.53;;;;;;;15.30;47.35;100215.50;2570143;23;20512;-65
2022/04/09 02:20:29;;;;;;;4.37;1.30;;;;;;;14.94;47.48;100155.06;2570405;23;20144;-64
2022/04/09 02:21:30;;;;;;;4.60;1.40;;;;;;;14.70;47.22;100118.00;2570137;23;20144;-64
2022/04/09 02:22:44;;;;;;;3.80;1.33;;;;;;;15.51;47.36;100220.03;2570180;23;20147;-64
2022/04/09 02:23:45;;;;;;;7.43;1.90;;;;;;;15.52;47.30;100222.34;2569752;23;20595;-64
2022/04/09 02:24:46;;;;;;;4.87;1.40;;;;;;;15.53;47.20;100228.72;2557146;23;20400;-64
2022/04/09 02:25:47;;;;;;;4.03;1.40;;;;;;;14.75;47.13;100114.56;2544595;23;20398;-64
2022/04/09 02:26:47;;;;;;;5.63;1.60;;;;;;;15.59;46.84;100219.22;2556897;23;20378;-64
2022/04/09 02:27:48;;;;;;;4.67;1.50;;;;;;;15.55;47.07;100220.63;2570150;23;20240;-65
2022/04/09 02:28:49;;;;;;;4.97;1.63;;;;;;;15.59;46.86;100226.81;2570187;23;20155;-64
2022/04/09 02:29:50;;;;;;;3.97;1.27;;;;;;;15.62;47.45;100225.88;2570150;23;20632;-64
2022/04/09 02:30:50;;;;;;;5.23;1.57;;;;;;;15.66;47.21;100226.44;2570158;23;20797;-65
2022/04/09 02:31:51;;;;;;;5.17;1.10;;;;;;;15.69;46.76;100233.91;2569927;23;20162;-65
2022/04/09 02:32:52;;;;;;;3.50;1.40;;;;;;;15.70;47.47;100236.22;2570021;23;20208;-65
2022/04/09 02:33:54;;;;;;;4.40;1.27;;;;;;;14.65;47.25;100074.00;2569615;23;20554;-65
2022/04/09 02:34:56;;;;;;;4.87;1.60;;;;;;;15.64;47.88;100215.78;2569872;23;20437;-65
2022/04/09 02:35:56;;;;;;;5.93;1.43;;;;;;;15.72;47.45;100233.72;2570119;23;20883;-64
2022/04/09 02:36:57;;;;;;;6.00;1.50;;;;;;;15.73;47.35;100234.50;2569886;23;20535;-64
2022/04/09 02:37:57;;;;;;;5.37;1.70;;;;;;;15.70;47.19;100227.84;2570080;23;20192;-65
2022/04/09 02:38:58;;;;;;;10.20;2.73;;;;;;;15.69;47.34;100226.31;2570110;23;20154;-65
2022/04/09 02:39:59;;;;;;;7.00;2.10;;;;;;;15.43;47.42;100185.34;2570064;23;20626;-65
2022/04/09 02:41:18;;;;;;;11.20;2.47;;;;;;;15.73;47.44;100232.44;2570048;23;20225;-65
2022/04/09 02:42:19;;;;;;;7.23;1.90;;;;;;;15.76;47.15;100227.94;2570064;23;20150;-65
2022/04/09 02:43:19;;;;;;;6.63;1.40;;;;;;;15.81;47.36;100208.50;2569723;23;20402;-64
2022/04/09 02:44:20;;;;;;;4.97;1.80;;;;;;;15.85;47.23;100219.50;2570215;23;20148;-65
2022/04/09 02:45:21;;;;;;;8.47;1.60;;;;;;;15.86;47.35;100218.22;2569982;23;20204;-65
2022/04/09 02:46:21;;;;;;;6.13;1.80;;;;;;;15.82;47.02;100217.63;2570098;23;20160;-64
2022/04/09 02:47:22;;;;;;;7.97;1.70;;;;;;;15.90;46.85;100210.44;2569679;23;20212;-64
2022/04/09 02:48:23;;;;;;;6.97;1.60;;;;;;;15.61;47.36;100180.41;2570138;23;20224;-64
2022/04/09 02:49:23;;;;;;;10.13;2.00;;;;;;;15.97;47.53;100219.22;2570210;23;20153;-64
2022/04/09 02:50:24;;;;;;;7.07;1.60;;;;;;;15.93;47.20;100217.88;2570092;23;20162;-65
2022/04/09 02:51:24;;;;;;;4.17;1.33;;;;;;;15.90;47.31;100221.63;2569885;23;20216;-65
2022/04/09 02:52:27;;;;;;;5.37;1.40;;;;;;;15.84;47.44;100215.16;2570070;23;20611;-64
2022/04/09 02:53:28;;;;;;;5.83;1.60;;;;;;;15.92;47.56;100216.31;2569711;23;20155;-64
2022/04/09 02:54:29;;;;;;;5.53;1.50;;;;;;;15.68;47.54;100187.66;2570012;23;20439;-64
2022/04/09 02:55:29;;;;;;;5.87;1.90;;;;;;;15.89;47.14;100209.66;2570207;23;20151;-64
2022/04/09 02:56:30;;;;;;;4.87;1.50;;;;;;;15.89;47.67;100228.47;2570162;23;20227;-65
2022/04/09 02:57:31;;;;;;;7.77;1.70;;;;;;;14.62;46.92;100005.25;2570001;23;20159;-65
2022/04/09 02:58:32;;;;;;;5.27;1.80;;;;;;;16.02;46.93;100223.38;2569926;23;20190;-65
2022/04/09 02:59:32;;;;;;;6.30;1.87;;;;;;;15.96;46.81;100220.50;2556729;23;20403;-65
2022/04/09 03:00:33;;;;;;;7.00;1.87;;;;;;;15.54;47.22;100143.69;2556702;23;20567;-65
2022/04/09 03:01:33;;;;;;;9.07;1.70;;;;;;;15.97;47.36;100212.88;2569256;23;20154;-65
2022/04/09 03:02:38;;;;;;;4.33;1.50;;;;;;;15.99;47.32;100204.78;2570122;23;20289;-65
2022/04/09 03:03:39;;;;;;;5.97;1.90;;;;;;;16.02;47.45;100215.00;2569665;23;20156;-65
2022/04/09 03:04:40;;;;;;;6.83;1.50;;;;;;;15.81;47.36;100185.38;2570128;23;20430;-65
2022/04/09 03:05:40;;;;;;;5.80;1.97;;;;;;;15.95;47.28;100199.38;2570144;23;20501;-65
2022/04/09 03:06:41;;;;;;;5.93;1.50;;;;;;;16.03;47.42;100214.53;2556606;23;20181;-64
2022/04/09 03:07:42;;;;;;;6.03;1.90;;;;;;;16.04;47.47;100218.84;2556943;23;20224;-64
2022/04/09 03:08:42;;;;;;;6.10;1.70;;;;;;;15.69;47.25;100155.69;2570234;23;20176;-65
2022/04/09 03:09:43;;;;;;;21.87;3.70;;;;;;;16.00;47.96;100203.53;2569952;23;20182;-65
2022/04/09 03:10:44;;;;;;;13.67;2.70;;;;;;;15.93;48.17;100195.53;2570217;23;20406;-64
2022/04/09 03:11:44;;;;;;;6.10;1.77;;;;;;;15.26;47.84;100101.22;2569844;23;20154;-64
2022/04/09 03:12:46;;;;;;;6.87;1.53;;;;;;;16.01;47.41;100211.44;2570116;23;20155;-65
2022/04/09 03:13:46;;;;;;;7.57;1.70;;;;;;;15.91;47.55;100198.78;2569740;23;20620;-64
2022/04/09 03:14:47;;;;;;;4.93;1.57;;;;;;;15.95;47.69;100201.41;2569996;23;20717;-64
2022/04/09 03:15:47;;;;;;;6.67;1.63;;;;;;;15.35;47.71;100109.56;2570206;23;20186;-65
2022/04/09 03:16:48;;;;;;;5.83;1.63;;;;;;;15.98;48.04;100206.03;2569982;23;20179;-65
2022/04/09 03:17:48;;;;;;;8.70;2.03;;;;;;;15.98;47.50;100200.47;2569797;23;20151;-64
2022/04/09 03:18:49;;;;;;;4.97;1.70;;;;;;;15.98;47.72;100200.47;2570137;23;20146;-64
2022/04/09 03:19:49;;;;;;;8.17;1.73;;;;;;;15.96;47.55;100198.13;2570122;23;20154;-64
2022/04/09 03:20:50;;;;;;;4.77;1.43;;;;;;;15.19;47.58;100086.84;2569995;23;20172;-65
2022/04/09 03:21:50;;;;;;;7.60;2.20;;;;;;;15.97;47.56;100194.09;2569941;23;20155;-64
2022/04/09 03:22:51;;;;;;;6.27;1.77;;;;;;;15.99;47.61;100196.41;2570174;23;20156;-64
2022/04/09 03:23:51;;;;;;;5.87;1.60;;;;;;;15.75;47.71;100160.13;2569591;23;20153;-64
2022/04/09 03:24:55;;;;;;;5.60;1.73;;;;;;;15.99;47.81;100194.38;2570153;23;20150;-65
2022/04/09 03:25:55;;;;;;;6.93;1.60;;;;;;;15.86;47.71;100168.72;2570003;23;20234;-64
2022/04/09 03:26:56;;;;;;;5.33;1.50;;;;;;;15.99;47.56;100188.03;2569788;23;20374;-66
2022/04/09 03:27:56;;;;;;;6.63;1.57;;;;;;;15.99;48.12;100199.94;2556826;23;20158;-66
2022/04/09 03:28:57;;;;;;;5.57;1.90;;;;;;;15.59;48.01;100124.28;2556972;23;20547;-67
2022/04/09 03:29:57;;;;;;;6.73;2.13;;;;;;;16.01;47.97;100186.28;2569991;23;20158;-67
2022/04/09 03:30:59;;;;;;;4.70;1.50;;;;;;;16.02;48.19;100179.44;2556641;23;20162;-67
2022/04/09 03:32:00;;;;;;;6.07;1.80;;;;;;;15.31;47.67;100077.47;2556990;23;20162;-67
2022/04/09 03:33:00;;;;;;;4.63;1.53;;;;;;;15.78;47.52;100136.06;2556674;23;20395;-67
2022/04/09 03:34:06;;;;;;;5.67;1.80;;;;;;;16.08;48.74;100185.91;2556738;23;20395;-66
2022/04/09 03:35:07;;;;;;;8.17;2.07;;;;;;;15.62;48.62;100128.13;2569986;23;20152;-67
2022/04/09 03:36:08;;;;;;;7.40;1.93;;;;;;;16.10;48.01;100177.03;2570070;23;20704;-67
2022/04/09 03:37:09;;;;;;;9.73;2.13;;;;;;;15.23;47.93;100043.56;2569715;23;20478;-67
2022/04/09 03:38:13;;;;;;;9.10;2.00;;;;;;;15.10;47.95;100031.09;2569919;23;20212;-67
2022/04/09 03:39:14;;;;;;;5.67;1.73;;;;;;;15.88;47.73;100140.31;2570022;23;20390;-67
2022/04/09 03:40:16;;;;;;;6.60;1.73;;;;;;;16.05;47.76;100158.16;2569950;23;20383;-67
2022/04/09 03:41:16;;;;;;;10.90;1.97;;;;;;;16.09;47.96;100167.13;2569827;23;20501;-67
2022/04/09 03:42:17;;;;;;;7.27;1.80;;;;;;;16.07;48.11;100169.59;2569970;23;20374;-67
2022/04/09 03:43:17;;;;;;;9.40;1.73;;;;;;;16.04;47.90;100165.75;2569737;23;20160;-66
2022/04/09 03:44:18;;;;;;;7.00;1.83;;;;;;;16.01;48.30;100174.31;2569941;23;20148;-67
2022/04/09 03:45:18;;;;;;;5.90;1.63;;;;;;;16.00;48.39;100173.56;2569775;23;20207;-67
2022/04/09 03:46:19;;;;;;;7.03;1.80;;;;;;;16.01;48.55;100175.13;2570800;23;20175;-67
2022/04/09 03:47:20;;;;;;;7.80;1.87;;;;;;;15.93;48.40;100167.59;2570419;23;20606;-67
2022/04/09 03:48:21;;;;;;;7.10;2.03;;;;;;;15.90;48.31;100172.13;2570714;23;20150;-67
2022/04/09 03:49:21;;;;;;;8.50;2.00;;;;;;;14.81;48.30;100003.88;2570869;23;20149;-67
2022/04/09 03:50:22;;;;;;;6.37;1.97;;;;;;;15.99;48.05;100172.00;2570717;23;20231;-67
2022/04/09 03:51:23;;;;;;;4.93;1.43;;;;;;;15.93;48.30;100159.19;2570648;23;20154;-67
2022/04/09 03:52:23;;;;;;;6.87;1.73;;;;;;;15.81;48.54;100157.44;2570819;23;20156;-66
2022/04/09 03:53:24;;;;;;;6.23;1.70;;;;;;;15.88;48.44;100169.00;2570622;23;20163;-66
2022/04/09 03:54:25;;;;;;;5.87;1.93;;;;;;;15.84;48.63;100170.47;2570760;23;20599;-67
2022/04/09 03:55:28;;;;;;;6.77;1.97;;;;;;;15.79;48.97;100165.53;2570845;23;20516;-67
2022/04/09 03:56:29;;;;;;;10.40;1.90;;;;;;;15.53;49.14;100137.31;2570795;23;20376;-66
2022/04/09 03:57:30;;;;;;;8.00;1.80;;;;;;;15.73;49.06;100162.63;2570322;23;20400;-67
2022/04/09 03:58:31;;;;;;;6.97;1.93;;;;;;;15.67;49.26;100163.78;2570559;23;20261;-67
2022/04/09 03:59:31;;;;;;;6.17;1.80;;;;;;;15.55;49.09;100128.47;2570865;23;20379;-66
2022/04/09 04:00:32;;;;;;;7.93;2.17;;;;;;;15.69;49.23;100159.25;2570767;23;20155;-66
2022/04/09 04:01:32;;;;;;;7.33;1.60;;;;;;;14.72;49.13;100005.97;2570505;23;20595;-66
2022/04/09 04:02:33;;;;;;;7.93;1.90;;;;;;;15.13;49.23;100070.00;2570744;23;20180;-67
2022/04/09 04:03:34;;;;;;;8.33;1.80;;;;;;;15.71;49.14;100155.97;2557197;23;20151;-67
2022/04/09 04:04:37;;;;;;;6.40;1.60;;;;;;;15.65;49.56;100158.66;2557475;23;20154;-67
2022/04/09 04:05:38;;;;;;;7.23;1.77;;;;;;;15.26;49.56;100100.47;2570576;23;20382;-67
2022/04/09 04:06:40;;;;;;;7.73;1.90;;;;;;;15.69;49.80;100155.69;2570526;23;20373;-67
2022/04/09 04:07:45;;;;;;;5.73;1.97;;;;;;;15.28;49.73;100095.94;2570479;23;20431;-67
2022/04/09 04:08:45;;;;;;;5.33;1.60;;;;;;;15.39;49.65;100104.56;2570727;23;20458;-67
2022/04/09 04:09:46;;;;;;;5.47;1.83;;;;;;;15.62;49.77;100154.03;2570746;23;20379;-66
2022/04/09 04:10:47;;;;;;;5.53;1.43;;;;;;;15.62;49.99;100158.84;2570595;23;20156;-67
2022/04/09 04:11:48;;;;;;;5.07;1.70;;;;;;;15.39;50.14;100117.75;2570487;23;20147;-66
2022/04/09 04:12:48;;;;;;;9.93;2.00;;;;;;;15.62;49.86;100151.22;2570569;23;20845;-67
2022/04/09 04:13:50;;;;;;;8.27;2.13;;;;;;;15.61;49.71;100138.53;2570408;23;20172;-66
2022/04/09 04:14:50;;;;;;;6.73;1.97;;;;;;;15.70;49.71;100146.81;2570652;23;20179;-67
2022/04/09 04:15:51;;;;;;;6.70;1.90;;;;;;;15.55;49.93;100120.88;2570591;23;20464;-67
2022/04/09 04:16:51;;;;;;;10.93;2.20;;;;;;;15.71;49.73;100148.38;2570339;23;20152;-67
2022/04/09 04:17:52;;;;;;;8.47;1.87;;;;;;;15.64;49.92;100131.22;2570554;23;20601;-67
2022/04/09 04:18:53;;;;;;;8.23;2.07;;;;;;;15.65;49.79;100127.16;2570624;23;20594;-66
2022/04/09 04:19:53;;;;;;;6.17;1.80;;;;;;;15.77;50.24;100146.44;2570679;23;20161;-66
2022/04/09 04:20:54;;;;;;;6.47;1.80;;;;;;;15.88;49.94;100148.69;2570662;23;20155;-67
2022/04/09 04:21:54;;;;;;;6.27;1.83;;;;;;;15.73;50.20;100131.88;2570406;23;20181;-66
2022/04/09 04:22:55;;;;;;;5.93;1.93;;;;;;;15.40;50.01;100085.78;2570594;23;20676;-67
2022/04/09 04:23:56;;;;;;;7.03;2.00;;;;;;;15.14;50.17;100038.06;2570213;23;20174;-66
2022/04/09 04:24:56;;;;;;;4.53;1.43;;;;;;;15.89;50.18;100150.22;2570571;23;20595;-66
2022/04/09 04:25:57;;;;;;;5.53;1.80;;;;;;;15.89;50.08;100147.44;2570605;23;20150;-67
2022/04/09 04:26:57;;;;;;;5.87;1.83;;;;;;;14.95;49.91;99994.78;2570458;23;20205;-66
2022/04/09 04:27:58;;;;;;;6.57;1.70;;;;;;;15.98;49.61;100150.91;2570654;23;20743;-67
2022/04/09 04:28:58;;;;;;;5.80;1.83;;;;;;;16.03;49.63;100158.63;2570596;23;20221;-67
2022/04/09 04:30:04;;;;;;;5.83;1.83;;;;;;;16.05;49.74;100149.75;2570699;23;20173;-67
2022/04/09 04:31:04;;;;;;;6.47;1.73;;;;;;;16.09;49.37;100144.75;2570477;23;20617;-67
2022/04/09 04:32:05;;;;;;;7.37;1.97;;;;;;;16.13;49.02;100139.75;2570696;23;20711;-67
2022/04/09 04:33:06;;;;;;;5.03;1.43;;;;;;;16.07;49.32;100124.88;2570345;23;20152;-67
2022/04/09 04:34:06;;;;;;;5.53;1.90;;;;;;;15.39;49.06;100029.19;2570417;23;20148;-67
2022/04/09 04:35:08;;;;;;;5.87;1.90;;;;;;;16.13;49.38;100139.75;2570590;23;20151;-67
2022/04/09 04:36:08;;;;;;;8.93;2.00;;;;;;;16.21;49.42;100129.72;2570496;23;20523;-67
2022/04/09 04:37:09;;;;;;;7.97;2.13;;;;;;;16.23;49.08;100143.97;2570240;23;20412;-67
2022/04/09 04:38:11;;;;;;;8.97;1.97;;;;;;;16.27;49.11;100141.75;2570254;23;20272;-67
2022/04/09 04:39:12;;;;;;;5.57;1.70;;;;;;;16.30;48.83;100149.19;2570942;23;20148;-67
2022/04/09 04:40:15;;;;;;;5.23;1.43;;;;;;;16.33;49.03;100154.59;2570518;23;20378;-67
2022/04/09 04:41:15;;;;;;;7.87;1.90;;;;;;;15.53;48.82;100011.66;2570308;23;20444;-67
2022/04/09 04:42:16;;;;;;;5.90;1.87;;;;;;;16.11;49.01;100119.88;2570531;23;20382;-66
2022/04/09 04:43:17;;;;;;;7.73;2.13;;;;;;;16.42;48.92;100147.41;2570225;23;20310;-67
2022/04/09 04:44:17;;;;;;;6.93;1.80;;;;;;;15.46;48.64;100000.09;2570357;23;20149;-67
2022/04/09 04:45:18;;;;;;;7.90;1.80;;;;;;;16.35;48.76;100140.88;2570187;23;20224;-67